createdAt,value
2023-02-09T00:01:56.558Z,0.80
2023-02-09T00:04:23.832Z,0.80
2023-02-09T00:06:54.159Z,0.40
2023-02-09T00:09:24.368Z,0.40
2023-02-09T00:12:13.211Z,0.30
2023-02-09T00:14:40.442Z,0.30
2023-02-09T00:17:12.981Z,0.30
2023-02-09T00:19:43.045Z,0.20
2023-02-09T00:22:10.182Z,0.20
2023-02-09T00:24:37.633Z,0.10
2023-02-09T00:27:04.811Z,0.10
2023-02-09T00:29:31.907Z,0.20
2023-02-09T00:32:02.067Z,0.30
2023-02-09T00:34:33.179Z,0.20
2023-02-09T00:37:00.363Z,0.00
2023-02-09T00:39:27.327Z,0.10
2023-02-09T00:42:06.190Z,0.00
2023-02-09T00:44:33.621Z,0.00
2023-02-09T00:47:05.356Z,-0.10
2023-02-09T00:49:36.571Z,-0.10
2023-02-09T00:52:04.080Z,0.00
2023-02-09T00:54:31.251Z,-0.20
2023-02-09T00:57:06.991Z,0.00
2023-02-09T00:59:35.472Z,-0.10
2023-02-09T01:02:05.078Z,-0.10
2023-02-09T01:04:34.214Z,-0.10
2023-02-09T01:07:01.615Z,0.00
2023-02-09T01:09:29.190Z,-0.20
2023-02-09T01:11:56.472Z,-0.20
2023-02-09T01:14:24.172Z,-0.20
2023-02-09T01:17:00.309Z,-0.10
2023-02-09T01:19:30.164Z,-0.20
2023-02-09T01:21:58.545Z,-0.30
2023-02-09T01:24:25.719Z,-0.30
2023-02-09T01:26:52.668Z,-0.40
2023-02-09T01:29:21.495Z,-0.50
2023-02-09T01:31:49.022Z,-0.60
2023-02-09T01:34:18.354Z,-0.40
2023-02-09T01:36:46.273Z,-0.40
2023-02-09T01:39:14.938Z,-0.50
2023-02-09T01:41:45.001Z,-0.50
2023-02-09T01:45:05.391Z,-0.40
2023-02-09T01:47:41.721Z,-0.50
2023-02-09T01:50:16.782Z,-0.70
2023-02-09T01:52:47.355Z,-0.60
2023-02-09T01:55:21.354Z,-0.70
2023-02-09T01:57:55.518Z,-0.80
2023-02-09T02:00:23.489Z,-0.80
2023-02-09T02:02:55.325Z,-0.80
2023-02-09T02:05:23.764Z,-0.70
2023-02-09T02:07:58.229Z,-0.80
2023-02-09T02:10:26.950Z,-0.80
2023-02-09T02:12:55.160Z,-0.80
2023-02-09T02:15:27.518Z,-0.70
2023-02-09T02:18:14.624Z,-0.80
2023-02-09T02:21:31.402Z,-0.80
2023-02-09T02:24:31.926Z,-0.70
2023-02-09T02:27:05.287Z,-0.60
2023-02-09T02:30:41.544Z,-0.70
2023-02-09T02:33:23.688Z,-0.70
2023-02-09T02:35:54.553Z,-0.80
2023-02-09T02:38:32.275Z,-0.80
2023-02-09T02:41:10.856Z,-0.80
2023-02-09T02:43:57.702Z,-0.90
2023-02-09T02:46:33.186Z,-1.00
2023-02-09T02:49:10.570Z,-1.00
2023-02-09T02:51:43.685Z,-1.00
2023-02-09T02:54:18.411Z,-1.00
2023-02-09T02:56:51.346Z,-1.00
2023-02-09T02:59:24.158Z,-0.90
2023-02-09T03:01:58.263Z,-1.00
2023-02-09T03:04:28.671Z,-1.10
2023-02-09T03:06:55.804Z,-1.20
2023-02-09T03:09:22.890Z,-1.10
2023-02-09T03:11:56.216Z,-1.20
2023-02-09T03:14:43.023Z,-1.10
2023-02-09T03:21:20.428Z,-1.20
2023-02-09T03:23:54.487Z,-1.10
2023-02-09T03:26:29.421Z,-1.10
2023-02-09T03:28:58.926Z,-1.20
2023-02-09T03:31:32.694Z,-1.30
2023-02-09T03:34:00.876Z,-1.20
2023-02-09T03:36:37.961Z,-1.20
2023-02-09T03:39:05.676Z,-1.20
2023-02-09T03:41:32.726Z,-1.30
2023-02-09T03:44:21.622Z,-1.30
2023-02-09T03:46:48.755Z,-1.40
2023-02-09T03:49:21.914Z,-1.40
2023-02-09T03:51:52.644Z,-1.30
2023-02-09T03:54:22.862Z,-1.30
2023-02-09T03:56:52.767Z,-1.40
2023-02-09T03:59:25.216Z,-1.50
2023-02-09T04:01:53.605Z,-1.30
2023-02-09T04:04:28.409Z,-1.50
2023-02-09T04:07:05.853Z,-1.80
2023-02-09T04:09:33.878Z,-1.60
2023-02-09T04:12:09.384Z,-1.60
2023-02-09T04:14:40.130Z,-1.60
2023-02-09T04:17:07.098Z,-1.70
2023-02-09T04:19:34.183Z,-1.60
2023-02-09T04:22:05.284Z,-1.70
2023-02-09T04:24:32.258Z,-1.70
2023-02-09T04:27:01.608Z,-1.70
2023-02-09T04:29:31.745Z,-1.70
2023-02-09T04:31:58.715Z,-1.60
2023-02-09T04:34:26.004Z,-1.60
2023-02-09T04:36:58.964Z,-1.70
2023-02-09T04:39:27.336Z,-1.70
2023-02-09T04:41:54.431Z,-1.70
2023-02-09T04:44:21.326Z,-1.70
2023-02-09T04:46:48.423Z,-1.70
2023-02-09T04:49:15.463Z,-1.80
2023-02-09T04:51:42.568Z,-1.80
2023-02-09T04:54:11.552Z,-1.80
2023-02-09T04:56:39.843Z,-1.90
2023-02-09T04:59:25.352Z,-1.80
2023-02-09T05:01:52.523Z,-1.80
2023-02-09T05:04:22.619Z,-1.80
2023-02-09T05:06:49.759Z,-1.90
2023-02-09T05:09:19.801Z,-1.80
2023-02-09T05:11:48.299Z,-1.90
2023-02-09T05:14:15.466Z,-1.90
2023-02-09T05:16:42.607Z,-1.90
2023-02-09T05:19:09.541Z,-2.00
2023-02-09T05:21:36.656Z,-1.90
2023-02-09T05:24:03.934Z,-1.90
2023-02-09T05:26:31.200Z,-1.90
2023-02-09T05:28:59.536Z,-1.90
2023-02-09T05:31:26.681Z,-1.90
2023-02-09T05:33:53.773Z,-1.80
2023-02-09T05:36:20.832Z,-1.90
2023-02-09T05:38:50.871Z,-1.90
2023-02-09T05:41:36.570Z,-1.80
2023-02-09T05:44:05.476Z,-1.80
2023-02-09T05:46:32.454Z,-1.90
2023-02-09T05:48:59.468Z,-1.90
2023-02-09T05:51:26.549Z,-1.90
2023-02-09T05:53:53.726Z,-2.00
2023-02-09T05:56:23.883Z,-2.10
2023-02-09T05:58:50.981Z,-2.00
2023-02-09T06:01:21.895Z,-2.00
2023-02-09T06:03:49.168Z,-2.00
2023-02-09T06:06:16.221Z,-2.00
2023-02-09T06:08:46.369Z,-2.00
2023-02-09T06:11:23.574Z,-2.00
2023-02-09T06:13:50.722Z,-2.00
2023-02-09T06:16:21.780Z,-2.00
2023-02-09T06:18:54.942Z,-2.00
2023-02-09T06:21:25.037Z,-2.10
2023-02-09T06:23:55.347Z,-2.10
2023-02-09T06:26:24.570Z,-2.10
2023-02-09T06:28:51.541Z,-2.10
2023-02-09T06:31:23.229Z,-2.00
2023-02-09T06:33:53.237Z,-2.10
2023-02-09T06:36:20.341Z,-2.10
2023-02-09T06:38:47.410Z,-2.10
2023-02-09T06:41:14.353Z,-2.20
2023-02-09T06:43:41.473Z,-2.10
2023-02-09T06:46:11.080Z,-2.20
2023-02-09T06:48:42.256Z,-2.30
2023-02-09T06:51:10.364Z,-2.40
2023-02-09T06:53:38.508Z,-2.30
2023-02-09T06:56:06.784Z,-2.20
2023-02-09T06:58:34.462Z,-2.10
2023-02-09T07:01:04.977Z,-2.00
2023-02-09T07:03:32.742Z,-2.00
2023-02-09T07:06:06.604Z,-2.10
2023-02-09T07:08:33.936Z,-2.10
2023-02-09T07:11:04.921Z,-2.10
2023-02-09T07:13:32.599Z,-2.10
2023-02-09T07:16:02.044Z,-2.10
2023-02-09T07:18:29.779Z,-2.10
2023-02-09T07:21:01.582Z,-2.20
2023-02-09T07:23:36.776Z,-2.20
2023-02-09T07:26:04.813Z,-2.10
2023-02-09T07:28:32.431Z,-2.20
2023-02-09T07:31:04.682Z,-2.10
2023-02-09T07:33:32.394Z,-2.10
2023-02-09T07:35:59.786Z,-2.10
2023-02-09T07:38:27.335Z,-2.00
2023-02-09T07:40:58.678Z,-1.90
2023-02-09T07:43:29.474Z,-1.90
2023-02-09T07:46:01.362Z,-1.90
2023-02-09T07:48:29.118Z,-1.90
2023-02-09T07:50:59.183Z,-1.80
2023-02-09T07:53:29.816Z,-1.70
2023-02-09T07:56:01.376Z,-1.70
2023-02-09T07:58:28.472Z,-1.70
2023-02-09T08:01:05.283Z,-1.70
2023-02-09T08:03:35.002Z,-1.60
2023-02-09T08:06:19.628Z,-1.60
2023-02-09T08:08:51.218Z,-1.50
2023-02-09T08:11:24.343Z,-1.50
2023-02-09T08:13:56.932Z,-1.40
2023-02-09T08:16:29.981Z,-1.30
2023-02-09T08:19:04.120Z,-1.30
2023-02-09T08:21:36.241Z,-1.20
2023-02-09T08:24:06.718Z,-1.10
2023-02-09T08:26:35.711Z,-1.20
2023-02-09T08:29:07.032Z,-1.00
2023-02-09T08:31:34.285Z,-1.00
2023-02-09T08:34:01.340Z,-0.90
2023-02-09T08:36:31.411Z,-0.80
2023-02-09T08:38:58.609Z,-0.70
2023-02-09T08:41:25.602Z,-0.70
2023-02-09T08:43:56.370Z,-0.70
2023-02-09T08:46:29.589Z,-0.60
2023-02-09T08:48:56.806Z,-0.50
2023-02-09T08:51:23.805Z,-0.50
2023-02-09T08:53:56.620Z,-0.30
2023-02-09T08:56:26.448Z,-0.30
2023-02-09T08:58:54.796Z,-0.20
2023-02-09T09:01:21.859Z,-0.10
2023-02-09T09:03:49.471Z,0.00
2023-02-09T09:06:17.087Z,0.00
2023-02-09T09:08:44.121Z,0.10
2023-02-09T09:11:18.886Z,0.10
2023-02-09T09:13:48.238Z,0.10
2023-02-09T09:16:22.189Z,0.20
2023-02-09T09:18:49.967Z,0.20
2023-02-09T09:21:18.656Z,0.40
2023-02-09T09:23:51.209Z,0.50
2023-02-09T09:26:18.544Z,0.60
2023-02-09T09:28:52.241Z,0.60
2023-02-09T09:31:23.413Z,0.60
2023-02-09T09:33:50.474Z,0.70
2023-02-09T09:36:22.204Z,0.80
2023-02-09T09:38:49.442Z,0.90
2023-02-09T09:41:24.522Z,1.10
2023-02-09T09:43:53.757Z,1.20
2023-02-09T09:46:30.700Z,1.40
2023-02-09T09:48:59.258Z,1.50
2023-02-09T09:51:38.013Z,1.60
2023-02-09T09:54:17.287Z,1.80
2023-02-09T09:56:44.412Z,1.80
2023-02-09T09:59:18.501Z,1.80
2023-02-09T10:01:50.345Z,1.80
2023-02-09T10:04:17.751Z,1.90
2023-02-09T10:06:47.064Z,2.00
2023-02-09T10:09:29.721Z,2.00
2023-02-09T10:12:07.563Z,2.10
2023-02-09T10:14:34.551Z,2.20
2023-02-09T10:17:03.121Z,2.20
2023-02-09T10:19:33.996Z,2.40
2023-02-09T10:22:01.016Z,2.40
2023-02-09T10:24:30.709Z,2.50
2023-02-09T10:27:26.879Z,2.60
2023-02-09T10:29:54.217Z,2.60
2023-02-09T10:32:29.388Z,2.80
2023-02-09T10:35:02.121Z,2.90
2023-02-09T10:37:38.261Z,3.00
2023-02-09T10:40:18.122Z,3.10
2023-02-09T10:42:59.633Z,3.40
2023-02-09T10:45:32.192Z,3.70
2023-02-09T10:48:10.170Z,3.70
2023-02-09T10:50:51.664Z,3.80
2023-02-09T10:53:24.381Z,3.80
2023-02-09T10:56:07.453Z,3.70
2023-02-09T10:58:37.195Z,3.50
2023-02-09T11:01:20.350Z,3.40
2023-02-09T11:04:02.483Z,3.40
2023-02-09T11:06:41.280Z,3.40
2023-02-09T11:09:18.601Z,3.30
2023-02-09T11:11:46.412Z,3.20
2023-02-09T11:14:18.101Z,3.20
2023-02-09T11:17:18.003Z,3.30
2023-02-09T11:20:20.533Z,3.30
2023-02-09T11:23:35.292Z,3.30
2023-02-09T11:26:16.074Z,3.20
2023-02-09T11:28:52.822Z,3.40
2023-02-09T11:31:48.412Z,3.40
2023-02-09T11:34:55.457Z,3.40
2023-02-09T11:37:37.389Z,3.40
2023-02-09T11:40:28.569Z,3.40
2023-02-09T11:43:15.372Z,3.50
2023-02-09T11:45:45.706Z,3.60
2023-02-09T11:48:20.981Z,3.60
2023-02-09T11:51:03.011Z,3.70
2023-02-09T11:53:42.103Z,3.60
2023-02-09T11:56:13.351Z,3.50
2023-02-09T11:58:47.358Z,3.40
2023-02-09T12:01:29.027Z,3.40
2023-02-09T12:04:13.037Z,3.40
2023-02-09T12:06:48.637Z,3.50
2023-02-09T12:09:36.674Z,3.60
2023-02-09T12:12:18.495Z,3.40
2023-02-09T12:15:04.958Z,3.50
2023-02-09T12:17:41.629Z,3.50
2023-02-09T12:20:26.727Z,3.50
2023-02-09T12:23:01.160Z,3.50
2023-02-09T12:25:51.616Z,3.60
2023-02-09T12:29:05.723Z,3.60
2023-02-09T12:32:27.644Z,3.60
2023-02-09T12:34:55.829Z,3.70
2023-02-09T12:37:28.278Z,3.60
2023-02-09T12:40:35.816Z,3.60
2023-02-09T12:43:29.972Z,3.70
2023-02-09T12:46:24.592Z,3.70
2023-02-09T12:49:13.981Z,3.80
2023-02-09T12:52:19.992Z,3.80
2023-02-09T12:54:52.467Z,3.80
2023-02-09T12:57:52.827Z,3.80
2023-02-09T13:01:05.164Z,3.90
2023-02-09T13:03:41.927Z,3.90
2023-02-09T13:06:29.622Z,4.00
2023-02-09T13:08:59.324Z,4.00
2023-02-09T13:11:32.849Z,4.00
2023-02-09T13:14:07.681Z,4.00
2023-02-09T13:17:32.018Z,4.00
2023-02-09T13:20:41.823Z,4.10
2023-02-09T13:23:29.229Z,4.20
2023-02-09T13:26:01.919Z,4.20
2023-02-09T13:31:37.075Z,4.10
2023-02-09T13:34:24.240Z,4.20
2023-02-09T13:37:06.312Z,4.20
2023-02-09T13:39:39.696Z,4.20
2023-02-09T13:42:20.567Z,4.20
2023-02-09T13:44:52.094Z,4.10
2023-02-09T13:47:22.170Z,4.20
2023-02-09T13:49:58.400Z,4.20
2023-02-09T13:52:26.968Z,4.30
2023-02-09T13:54:55.265Z,4.30
2023-02-09T13:57:31.489Z,4.30
2023-02-09T14:00:08.996Z,4.40
2023-02-09T14:02:36.989Z,4.40
2023-02-09T14:05:07.254Z,4.40
2023-02-09T14:07:37.848Z,4.40
2023-02-09T14:10:14.373Z,4.40
2023-02-09T14:12:51.219Z,4.40
2023-02-09T14:15:39.881Z,4.50
2023-02-09T14:18:29.577Z,4.70
2023-02-09T14:21:21.637Z,4.60
2023-02-09T14:24:08.649Z,4.60
2023-02-09T14:26:55.152Z,4.60
2023-02-09T14:29:28.455Z,4.60
2023-02-09T14:31:58.503Z,4.50
2023-02-09T14:34:33.257Z,4.50
2023-02-09T14:37:29.401Z,4.50
2023-02-09T14:40:01.891Z,4.50
2023-02-09T14:42:40.509Z,4.60
2023-02-09T14:45:30.690Z,4.60
2023-02-09T14:47:57.797Z,4.50
2023-02-09T14:50:34.388Z,4.50
2023-02-09T14:53:06.340Z,4.50
2023-02-09T14:55:46.253Z,4.40
2023-02-09T14:58:21.731Z,4.40
2023-02-09T15:00:50.038Z,4.40
2023-02-09T15:03:20.661Z,4.40
2023-02-09T15:06:00.347Z,4.30
2023-02-09T15:08:30.874Z,4.30
2023-02-09T15:11:00.635Z,4.30
2023-02-09T15:13:33.138Z,4.30
2023-02-09T15:16:00.178Z,4.40
2023-02-09T15:18:27.678Z,4.30
2023-02-09T15:20:59.674Z,4.30
2023-02-09T15:23:32.502Z,4.30
2023-02-09T15:26:02.691Z,4.30
2023-02-09T15:28:33.418Z,4.30
2023-02-09T15:31:01.834Z,4.30
2023-02-09T15:33:34.678Z,4.30
2023-02-09T15:36:06.083Z,4.30
2023-02-09T15:38:33.102Z,4.30
2023-02-09T15:41:19.181Z,4.30
2023-02-09T15:44:05.872Z,4.30
2023-02-09T15:46:51.758Z,4.30
2023-02-09T15:49:19.328Z,4.30
2023-02-09T15:51:46.380Z,4.30
2023-02-09T15:54:19.512Z,4.30
2023-02-09T15:56:49.572Z,4.20
2023-02-09T15:59:23.581Z,4.20
2023-02-09T16:01:50.983Z,4.30
2023-02-09T16:04:18.322Z,4.20
2023-02-09T16:06:49.044Z,4.10
2023-02-09T16:09:22.507Z,4.10
2023-02-09T16:11:50.025Z,4.10
2023-02-09T16:14:21.119Z,4.10
2023-02-09T16:16:51.869Z,4.10
2023-02-09T16:19:21.162Z,4.10
2023-02-09T16:21:51.843Z,4.00
2023-02-09T16:24:32.290Z,4.00
2023-02-09T16:27:00.781Z,4.00
2023-02-09T16:29:29.379Z,4.00
2023-02-09T16:31:56.720Z,3.80
2023-02-09T16:34:23.929Z,3.70
2023-02-09T16:36:57.290Z,3.60
2023-02-09T16:39:24.692Z,3.70
2023-02-09T16:41:52.722Z,3.70
2023-02-09T16:44:29.477Z,3.60
2023-02-09T16:47:00.251Z,3.60
2023-02-09T16:49:33.616Z,3.50
2023-02-09T16:52:06.267Z,3.50
2023-02-09T16:54:44.689Z,3.40
2023-02-09T16:57:14.616Z,3.20
2023-02-09T16:59:41.747Z,3.10
2023-02-09T17:02:40.865Z,3.00
2023-02-09T17:05:18.537Z,2.90
2023-02-09T17:07:54.429Z,3.00
2023-02-09T17:10:29.184Z,2.90
2023-02-09T17:12:56.458Z,2.70
2023-02-09T17:15:31.820Z,2.70
2023-02-09T17:18:04.824Z,2.60
2023-02-09T17:20:37.429Z,2.70
2023-02-09T17:23:05.465Z,2.70
2023-02-09T17:25:41.659Z,2.50
2023-02-09T17:28:08.859Z,2.60
2023-02-09T17:30:40.476Z,2.60
2023-02-09T17:33:22.531Z,2.60
2023-02-09T17:36:25.686Z,2.50
2023-02-09T17:38:44.138Z,2.30
2023-02-09T17:41:17.852Z,2.30
2023-02-09T17:43:51.435Z,2.10
2023-02-09T17:46:20.150Z,2.10
2023-02-09T17:48:49.107Z,2.20
2023-02-09T17:51:24.140Z,2.30
2023-02-09T17:53:51.249Z,2.30
2023-02-09T17:56:21.146Z,2.30
2023-02-09T17:58:48.227Z,2.20
2023-02-09T18:01:27.380Z,2.00
2023-02-09T18:03:58.628Z,2.00
2023-02-09T18:06:33.708Z,2.10
2023-02-09T18:09:01.299Z,2.10
2023-02-09T18:11:58.929Z,2.00
2023-02-09T18:14:28.717Z,2.00
2023-02-09T18:16:56.260Z,1.80
2023-02-09T18:19:25.921Z,1.70
2023-02-09T18:21:55.319Z,1.80
2023-02-09T18:24:24.926Z,1.90
2023-02-09T18:26:52.180Z,1.90
2023-02-09T18:29:29.323Z,2.00
2023-02-09T18:31:56.964Z,2.00
2023-02-09T18:34:28.227Z,2.10
2023-02-09T18:36:55.389Z,2.20
2023-02-09T18:39:25.682Z,2.20
2023-02-09T18:41:56.682Z,2.30
2023-02-09T18:44:30.418Z,2.30
2023-02-09T18:46:58.285Z,2.30
2023-02-09T18:49:26.854Z,2.40
2023-02-09T18:51:59.766Z,2.30
2023-02-09T18:54:29.060Z,2.20
2023-02-09T18:57:01.593Z,2.10
2023-02-09T18:59:30.133Z,2.10
2023-02-09T19:01:57.977Z,2.10
2023-02-09T19:04:29.421Z,2.10
2023-02-09T19:06:56.657Z,2.20
2023-02-09T19:09:26.838Z,2.10
2023-02-09T19:11:54.021Z,2.00
2023-02-09T19:14:41.555Z,1.90
2023-02-09T19:17:16.172Z,1.90
2023-02-09T19:19:45.984Z,1.80
2023-02-09T19:22:15.846Z,1.80
2023-02-09T19:24:43.185Z,1.70
2023-02-09T19:27:11.444Z,1.70
2023-02-09T19:29:42.625Z,1.70
2023-02-09T19:32:11.395Z,1.80
2023-02-09T19:34:46.004Z,1.90
2023-02-09T19:37:13.981Z,1.80
2023-02-09T19:40:00.425Z,1.70
2023-02-09T19:42:27.436Z,1.70
2023-02-09T19:44:55.826Z,1.60
2023-02-09T19:47:27.236Z,1.60
2023-02-09T19:50:00.579Z,1.60
2023-02-09T19:52:28.656Z,1.60
2023-02-09T19:54:57.693Z,1.40
2023-02-09T19:57:24.990Z,1.40
2023-02-09T19:59:55.773Z,1.40
2023-02-09T20:02:22.747Z,1.40
2023-02-09T20:04:50.073Z,1.30
2023-02-09T20:07:18.565Z,1.20
2023-02-09T20:09:46.153Z,1.30
2023-02-09T20:12:14.290Z,1.20
2023-02-09T20:14:44.382Z,1.30
2023-02-09T20:17:11.480Z,1.30
2023-02-09T20:19:39.203Z,1.30
2023-02-09T20:22:07.508Z,1.30
2023-02-09T20:24:36.238Z,1.30
2023-02-09T20:27:03.626Z,1.30
2023-02-09T20:29:33.244Z,1.40
2023-02-09T20:32:01.512Z,1.40
2023-02-09T20:34:28.633Z,1.50
2023-02-09T20:36:57.376Z,1.40
2023-02-09T20:39:27.191Z,1.40
2023-02-09T20:42:17.636Z,1.40
2023-02-09T20:45:03.701Z,1.30
2023-02-09T20:47:30.744Z,1.30
2023-02-09T20:49:59.865Z,1.20
2023-02-09T20:52:28.067Z,1.00
2023-02-09T20:54:55.335Z,1.10
2023-02-09T20:57:29.172Z,1.10
2023-02-09T20:59:56.947Z,1.10
2023-02-09T21:02:24.583Z,1.00
2023-02-09T21:04:54.167Z,0.80
2023-02-09T21:07:21.195Z,0.80
2023-02-09T21:09:48.326Z,0.80
2023-02-09T21:12:15.374Z,0.90
2023-02-09T21:14:46.527Z,0.80
2023-02-09T21:17:14.083Z,0.90
2023-02-09T21:19:41.297Z,0.70
2023-02-09T21:22:08.318Z,0.60
2023-02-09T21:24:37.088Z,0.70
2023-02-09T21:27:05.124Z,0.60
2023-02-09T21:29:32.471Z,0.60
2023-02-09T21:32:03.637Z,0.70
2023-02-09T21:34:31.166Z,0.70
2023-02-09T21:36:58.267Z,0.80
2023-02-09T21:39:25.341Z,0.70
2023-02-09T21:42:10.840Z,0.70
2023-02-09T21:44:38.126Z,0.70
2023-02-09T21:47:06.783Z,0.70
2023-02-09T21:49:33.893Z,0.70
2023-02-09T21:52:00.849Z,0.70
2023-02-09T21:54:33.158Z,0.70
2023-02-09T21:57:00.348Z,0.70
2023-02-09T21:59:28.457Z,0.50
2023-02-09T22:01:55.780Z,0.40
2023-02-09T22:04:24.421Z,0.40
2023-02-09T22:06:51.594Z,0.50
2023-02-09T22:09:23.067Z,0.50
2023-02-09T22:11:53.131Z,0.60
2023-02-09T22:14:20.182Z,0.60
2023-02-09T22:16:50.385Z,0.50
2023-02-09T22:19:17.572Z,0.50
2023-02-09T22:21:46.098Z,0.30
2023-02-09T22:24:16.376Z,0.30
2023-02-09T22:26:43.541Z,0.30
2023-02-09T22:29:13.711Z,0.30
2023-02-09T22:31:41.071Z,0.30
2023-02-09T22:34:08.025Z,0.40
2023-02-09T22:36:35.754Z,0.30
2023-02-09T22:39:05.700Z,0.30
2023-02-09T22:41:32.966Z,0.00
2023-02-09T22:44:03.014Z,0.10
2023-02-09T22:46:33.236Z,0.00
2023-02-09T22:49:03.062Z,0.10
2023-02-09T22:51:31.854Z,0.00
2023-02-09T22:53:59.856Z,-0.10
2023-02-09T22:56:29.442Z,-0.10
2023-02-09T22:58:58.443Z,-0.10
2023-02-09T23:01:26.632Z,0.00
2023-02-09T23:03:54.536Z,0.10
2023-02-09T23:06:24.537Z,0.20
2023-02-09T23:08:53.847Z,0.10
2023-02-09T23:11:23.115Z,0.10
2023-02-09T23:14:03.833Z,0.00
2023-02-09T23:16:36.098Z,0.00
2023-02-09T23:19:07.673Z,0.00
2023-02-09T23:21:37.004Z,0.00
2023-02-09T23:24:05.384Z,-0.10
2023-02-09T23:26:33.135Z,-0.20
2023-02-09T23:29:05.145Z,-0.30
2023-02-09T23:31:32.649Z,-0.30
2023-02-09T23:33:59.845Z,-0.30
2023-02-09T23:36:29.155Z,-0.20
2023-02-09T23:38:58.848Z,-0.30
2023-02-09T23:41:26.833Z,-0.30
2023-02-09T23:43:54.598Z,-0.30
2023-02-09T23:46:28.282Z,-0.20
2023-02-09T23:48:56.399Z,-0.20
2023-02-09T23:51:26.912Z,-0.10
2023-02-09T23:53:55.515Z,-0.20
2023-02-09T23:56:23.420Z,-0.30
2023-02-09T23:58:55.099Z,-0.30
